createdAt,value
2023-04-30T00:00:03.168Z,21.88
2023-04-30T00:01:03.173Z,21.88
2023-04-30T00:02:03.250Z,21.88
2023-04-30T00:03:03.233Z,21.88
2023-04-30T00:04:03.263Z,21.87
2023-04-30T00:05:03.235Z,21.87
2023-04-30T00:06:03.287Z,21.87
2023-04-30T00:07:03.262Z,21.87
2023-04-30T00:08:03.255Z,21.87
2023-04-30T00:09:03.347Z,21.87
2023-04-30T00:10:03.286Z,21.87
2023-04-30T00:11:03.321Z,21.86
2023-04-30T00:12:03.312Z,21.87
2023-04-30T00:13:03.373Z,21.86
2023-04-30T00:14:03.354Z,21.87
2023-04-30T00:15:03.366Z,21.86
2023-04-30T00:16:03.391Z,21.87
2023-04-30T00:17:03.390Z,21.86
2023-04-30T00:18:03.430Z,21.86
2023-04-30T00:19:03.404Z,21.86
2023-04-30T00:20:03.397Z,21.85
2023-04-30T00:21:03.426Z,21.85
2023-04-30T00:22:03.442Z,21.86
2023-04-30T00:23:03.468Z,21.86
2023-04-30T00:24:03.472Z,21.85
2023-04-30T00:25:03.491Z,21.86
2023-04-30T00:26:03.535Z,21.85
2023-04-30T00:27:03.538Z,21.85
2023-04-30T00:28:03.566Z,21.85
2023-04-30T00:29:03.560Z,21.85
2023-04-30T00:30:03.587Z,21.85
2023-04-30T00:31:03.620Z,21.84
2023-04-30T00:32:03.653Z,21.84
2023-04-30T00:33:03.620Z,21.85
2023-04-30T00:34:03.653Z,21.84
2023-04-30T00:35:03.646Z,21.84
2023-04-30T00:36:03.658Z,21.85
2023-04-30T00:37:03.699Z,21.84
2023-04-30T00:38:03.710Z,21.84
2023-04-30T00:39:03.713Z,21.84
2023-04-30T00:40:03.724Z,21.84
2023-04-30T00:41:03.741Z,21.84
2023-04-30T00:42:03.741Z,21.84
2023-04-30T00:43:03.852Z,21.84
2023-04-30T00:44:03.796Z,21.84
2023-04-30T00:45:03.810Z,21.83
2023-04-30T00:46:03.974Z,21.83
2023-04-30T00:47:04.687Z,21.83
2023-04-30T00:48:03.938Z,21.83
2023-04-30T00:49:03.914Z,21.83
2023-04-30T00:50:03.910Z,21.83
2023-04-30T00:51:03.950Z,21.82
2023-04-30T00:52:03.940Z,21.83
2023-04-30T00:53:03.962Z,21.82
2023-04-30T00:54:03.973Z,21.82
2023-04-30T00:55:03.978Z,21.83
2023-04-30T00:56:04.006Z,21.81
2023-04-30T00:57:04.056Z,21.82
2023-04-30T00:58:04.052Z,21.82
2023-04-30T00:59:04.069Z,21.81
2023-04-30T01:00:04.061Z,21.83
2023-04-30T01:01:04.128Z,21.82
2023-04-30T01:02:04.144Z,21.82
2023-04-30T01:03:04.248Z,21.82
2023-04-30T01:04:04.152Z,21.82
2023-04-30T01:05:04.182Z,21.81
2023-04-30T01:06:04.215Z,21.82
2023-04-30T01:07:04.171Z,21.81
2023-04-30T01:08:04.228Z,21.81
2023-04-30T01:09:04.234Z,21.80
2023-04-30T01:10:04.277Z,21.81
2023-04-30T01:11:04.274Z,21.81
2023-04-30T01:12:04.304Z,21.81
2023-04-30T01:13:04.322Z,21.81
2023-04-30T01:14:04.348Z,21.81
2023-04-30T01:15:04.368Z,21.81
2023-04-30T01:16:04.462Z,21.81
2023-04-30T01:17:04.391Z,21.80
2023-04-30T01:18:04.481Z,21.80
2023-04-30T01:19:04.506Z,21.80
2023-04-30T01:20:04.463Z,21.80
2023-04-30T01:21:04.497Z,21.79
2023-04-30T01:22:04.505Z,21.80
2023-04-30T01:23:04.472Z,21.79
2023-04-30T01:24:04.531Z,21.80
2023-04-30T01:25:04.539Z,21.80
2023-04-30T01:26:04.579Z,21.80
2023-04-30T01:27:04.592Z,21.79
2023-04-30T01:28:04.618Z,21.79
2023-04-30T01:29:04.631Z,21.80
2023-04-30T01:30:04.628Z,21.79
2023-04-30T01:31:04.757Z,21.79
2023-04-30T01:32:04.683Z,21.79
2023-04-30T01:33:04.783Z,21.79
2023-04-30T01:34:04.772Z,21.79
2023-04-30T01:35:04.744Z,21.79
2023-04-30T01:36:04.757Z,21.79
2023-04-30T01:37:04.830Z,21.79
2023-04-30T01:38:04.795Z,21.78
2023-04-30T01:39:04.825Z,21.78
2023-04-30T01:40:04.880Z,21.78
2023-04-30T01:41:04.892Z,21.79
2023-04-30T01:42:04.923Z,21.78
2023-04-30T01:43:04.946Z,21.78
2023-04-30T01:44:04.956Z,21.79
2023-04-30T01:45:04.981Z,21.78
2023-04-30T01:46:05.140Z,21.78
2023-04-30T01:47:05.058Z,21.78
2023-04-30T01:48:05.081Z,21.77
2023-04-30T01:49:05.116Z,21.77
2023-04-30T01:50:05.074Z,21.77
2023-04-30T01:51:05.141Z,21.77
2023-04-30T01:52:05.151Z,21.77
2023-04-30T01:53:05.155Z,21.77
2023-04-30T01:54:05.171Z,21.77
2023-04-30T01:55:05.231Z,21.77
2023-04-30T01:56:05.223Z,21.77
2023-04-30T01:57:05.272Z,21.77
2023-04-30T01:58:05.258Z,21.77
2023-04-30T01:59:05.281Z,21.77
2023-04-30T02:00:05.291Z,21.77
2023-04-30T02:01:05.353Z,21.76
2023-04-30T02:02:05.344Z,21.76
2023-04-30T02:03:05.472Z,21.77
2023-04-30T02:04:05.639Z,21.76
2023-04-30T02:05:05.394Z,21.76
2023-04-30T02:06:05.450Z,21.76
2023-04-30T02:07:05.488Z,21.76
2023-04-30T02:08:05.441Z,21.76
2023-04-30T02:09:05.476Z,21.76
2023-04-30T02:10:05.490Z,21.76
2023-04-30T02:11:05.555Z,21.75
2023-04-30T02:12:05.575Z,21.75
2023-04-30T02:13:05.555Z,21.76
2023-04-30T02:14:05.574Z,21.75
2023-04-30T02:15:05.620Z,21.75
2023-04-30T02:16:05.632Z,21.75
2023-04-30T02:17:05.646Z,21.75
2023-04-30T02:18:05.682Z,21.75
2023-04-30T02:19:05.720Z,21.74
2023-04-30T02:20:05.718Z,21.75
2023-04-30T02:21:05.718Z,21.74
2023-04-30T02:22:05.757Z,21.75
2023-04-30T02:23:05.790Z,21.74
2023-04-30T02:24:05.851Z,21.75
2023-04-30T02:25:05.804Z,21.75
2023-04-30T02:26:05.860Z,21.75
2023-04-30T02:27:05.867Z,21.74
2023-04-30T02:28:05.873Z,21.75
2023-04-30T02:29:05.945Z,21.74
2023-04-30T02:30:05.952Z,21.75
2023-04-30T02:31:05.971Z,21.74
2023-04-30T02:32:06.029Z,21.74
2023-04-30T02:33:06.040Z,21.74
2023-04-30T02:34:06.058Z,21.74
2023-04-30T02:35:06.060Z,21.74
2023-04-30T02:36:06.080Z,21.73
2023-04-30T02:37:06.110Z,21.74
2023-04-30T02:38:06.138Z,21.74
2023-04-30T02:39:06.129Z,21.73
2023-04-30T02:40:06.160Z,21.74
2023-04-30T02:41:06.164Z,21.72
2023-04-30T02:42:06.200Z,21.73
2023-04-30T02:43:06.219Z,21.73
2023-04-30T02:44:06.229Z,21.73
2023-04-30T02:45:06.256Z,21.73
2023-04-30T02:46:06.388Z,21.72
2023-04-30T02:47:06.322Z,21.73
2023-04-30T02:48:06.432Z,21.72
2023-04-30T02:49:06.341Z,21.72
2023-04-30T02:50:06.386Z,21.72
2023-04-30T02:51:06.385Z,21.72
2023-04-30T02:52:06.406Z,21.72
2023-04-30T02:53:06.456Z,21.72
2023-04-30T02:54:06.499Z,21.71
2023-04-30T02:55:06.494Z,21.71
2023-04-30T02:56:06.500Z,21.71
2023-04-30T02:57:06.540Z,21.72
2023-04-30T02:58:06.580Z,21.71
2023-04-30T02:59:06.576Z,21.71
2023-04-30T03:00:06.612Z,21.72
2023-04-30T03:01:06.645Z,21.71
2023-04-30T03:02:06.694Z,21.71
2023-04-30T03:03:06.893Z,21.71
2023-04-30T03:04:06.717Z,21.71
2023-04-30T03:05:06.723Z,21.71
2023-04-30T03:06:06.812Z,21.71
2023-04-30T03:07:06.823Z,21.71
2023-04-30T03:08:06.785Z,21.71
2023-04-30T03:09:06.810Z,21.71
2023-04-30T03:10:06.851Z,21.70
2023-04-30T03:11:06.874Z,21.71
2023-04-30T03:12:06.894Z,21.70
2023-04-30T03:13:06.919Z,21.71
2023-04-30T03:14:06.976Z,21.71
2023-04-30T03:15:06.958Z,21.70
2023-04-30T03:16:07.025Z,21.71
2023-04-30T03:17:07.023Z,21.70
2023-04-30T03:18:07.057Z,21.70
2023-04-30T03:19:07.054Z,21.70
2023-04-30T03:20:07.095Z,21.69
2023-04-30T03:21:07.120Z,21.69
2023-04-30T03:22:07.139Z,21.69
2023-04-30T03:23:07.192Z,21.69
2023-04-30T03:24:07.193Z,21.69
2023-04-30T03:25:07.201Z,21.69
2023-04-30T03:26:07.267Z,21.69
2023-04-30T03:27:07.287Z,21.69
2023-04-30T03:28:07.304Z,21.68
2023-04-30T03:29:07.780Z,21.68
2023-04-30T03:30:07.361Z,21.69
2023-04-30T03:31:07.456Z,21.68
2023-04-30T03:32:07.419Z,21.68
2023-04-30T03:33:07.580Z,21.68
2023-04-30T03:34:07.525Z,21.68
2023-04-30T03:35:07.536Z,21.68
2023-04-30T03:36:07.554Z,21.68
2023-04-30T03:37:07.592Z,21.68
2023-04-30T03:38:07.593Z,21.68
2023-04-30T03:39:07.658Z,21.68
2023-04-30T03:40:07.676Z,21.67
2023-04-30T03:41:07.709Z,21.67
2023-04-30T03:42:07.726Z,21.67
2023-04-30T03:43:07.740Z,21.68
2023-04-30T03:44:07.808Z,21.68
2023-04-30T03:45:07.845Z,21.67
2023-04-30T03:46:07.954Z,21.67
2023-04-30T03:47:07.870Z,21.66
2023-04-30T03:48:07.953Z,21.67
2023-04-30T03:49:07.965Z,21.67
2023-04-30T03:50:07.947Z,21.67
2023-04-30T03:51:07.963Z,21.66
2023-04-30T03:52:08.006Z,21.66
2023-04-30T03:53:08.033Z,21.66
2023-04-30T03:54:08.086Z,21.66
2023-04-30T03:55:08.070Z,21.66
2023-04-30T03:56:08.100Z,21.66
2023-04-30T03:57:08.161Z,21.66
2023-04-30T03:58:08.187Z,21.66
2023-04-30T03:59:08.201Z,21.66
2023-04-30T04:00:08.212Z,21.66
2023-04-30T04:01:08.265Z,21.66
2023-04-30T04:02:08.322Z,21.66
2023-04-30T04:03:08.334Z,21.66
2023-04-30T04:04:08.420Z,21.66
2023-04-30T04:05:08.389Z,21.66
2023-04-30T04:06:08.508Z,21.66
2023-04-30T04:07:08.448Z,21.66
2023-04-30T04:08:08.490Z,21.66
2023-04-30T04:09:08.528Z,21.66
2023-04-30T04:10:08.542Z,21.65
2023-04-30T04:11:08.563Z,21.65
2023-04-30T04:12:08.632Z,21.65
2023-04-30T04:13:08.655Z,21.65
2023-04-30T04:14:08.693Z,21.64
2023-04-30T04:15:08.695Z,21.65
2023-04-30T04:16:08.800Z,21.65
2023-04-30T04:17:08.749Z,21.64
2023-04-30T04:18:08.895Z,21.64
2023-04-30T04:19:08.780Z,21.64
2023-04-30T04:20:08.790Z,21.64
2023-04-30T04:21:08.865Z,21.64
2023-04-30T04:22:08.862Z,21.65
2023-04-30T04:23:08.947Z,21.63
2023-04-30T04:24:08.983Z,21.64
2023-04-30T04:25:08.994Z,21.64
2023-04-30T04:26:08.978Z,21.64
2023-04-30T04:27:09.052Z,21.64
2023-04-30T04:28:09.063Z,21.64
2023-04-30T04:29:09.058Z,21.64
2023-04-30T04:30:09.120Z,21.64
2023-04-30T04:31:09.147Z,21.64
2023-04-30T04:32:09.164Z,21.63
2023-04-30T04:33:09.189Z,21.64
2023-04-30T04:34:09.210Z,21.64
2023-04-30T04:35:09.227Z,21.64
2023-04-30T04:36:09.262Z,21.64
2023-04-30T04:37:09.313Z,21.64
2023-04-30T04:38:09.335Z,21.63
2023-04-30T04:39:09.353Z,21.64
2023-04-30T04:40:09.364Z,21.63
2023-04-30T04:41:09.405Z,21.64
2023-04-30T04:42:09.396Z,21.64
2023-04-30T04:43:09.464Z,21.64
2023-04-30T04:44:09.481Z,21.64
2023-04-30T04:45:09.485Z,21.64
2023-04-30T04:46:10.663Z,21.63
2023-04-30T04:47:09.518Z,21.63
2023-04-30T04:48:09.598Z,21.63
2023-04-30T04:49:09.526Z,21.63
2023-04-30T04:50:09.499Z,21.64
2023-04-30T04:51:09.483Z,21.63
2023-04-30T04:52:09.474Z,21.63
2023-04-30T04:53:09.448Z,21.64
2023-04-30T04:54:09.471Z,21.63
2023-04-30T04:55:09.484Z,21.63
2023-04-30T04:56:09.434Z,21.63
2023-04-30T04:57:09.808Z,21.63
2023-04-30T04:58:09.450Z,21.62
2023-04-30T04:59:09.416Z,21.63
2023-04-30T05:00:09.416Z,21.63
2023-04-30T05:01:09.433Z,21.63
2023-04-30T05:02:09.635Z,21.63
2023-04-30T05:03:09.520Z,21.63
2023-04-30T05:04:09.483Z,21.63
2023-04-30T05:05:09.393Z,21.63
2023-04-30T05:06:09.378Z,21.63
2023-04-30T05:07:09.364Z,21.63
2023-04-30T05:08:09.354Z,21.63
2023-04-30T05:09:09.445Z,21.63
2023-04-30T05:10:09.344Z,21.63
2023-04-30T05:11:09.342Z,21.63
2023-04-30T05:12:09.324Z,21.63
2023-04-30T05:13:09.329Z,21.64
2023-04-30T05:14:09.299Z,21.64
2023-04-30T05:15:09.304Z,21.64
2023-04-30T05:16:09.371Z,21.63
2023-04-30T05:17:09.350Z,21.64
2023-04-30T05:18:09.415Z,21.63
2023-04-30T05:19:09.270Z,21.63
2023-04-30T05:20:09.307Z,21.64
2023-04-30T05:21:09.270Z,21.64
2023-04-30T05:22:09.240Z,21.64
2023-04-30T05:23:09.319Z,21.64
2023-04-30T05:24:09.236Z,21.64
2023-04-30T05:25:09.260Z,21.64
2023-04-30T05:26:09.223Z,21.64
2023-04-30T05:27:09.244Z,21.64
2023-04-30T05:28:09.217Z,21.64
2023-04-30T05:29:09.226Z,21.64
2023-04-30T05:30:09.228Z,21.64
2023-04-30T05:31:09.213Z,21.64
2023-04-30T05:32:09.295Z,21.64
2023-04-30T05:33:09.250Z,21.64
2023-04-30T05:34:09.162Z,21.64
2023-04-30T05:35:09.183Z,21.64
2023-04-30T05:36:09.159Z,21.64
2023-04-30T05:37:09.186Z,21.64
2023-04-30T05:38:09.138Z,21.64
2023-04-30T05:39:09.122Z,21.64
2023-04-30T05:40:09.152Z,21.65
2023-04-30T05:41:09.118Z,21.64
2023-04-30T05:42:09.164Z,21.65
2023-04-30T05:43:09.096Z,21.65
2023-04-30T05:44:09.101Z,21.65
2023-04-30T05:45:09.116Z,21.65
2023-04-30T05:46:09.140Z,21.65
2023-04-30T05:47:09.099Z,21.66
2023-04-30T05:48:09.114Z,21.65
2023-04-30T05:49:09.082Z,21.66
2023-04-30T05:50:09.314Z,21.65
2023-04-30T05:51:09.055Z,21.66
2023-04-30T05:52:09.046Z,21.66
2023-04-30T05:53:09.058Z,21.66
2023-04-30T05:54:09.029Z,21.67
2023-04-30T05:55:09.047Z,21.67
2023-04-30T05:56:09.054Z,21.67
2023-04-30T05:57:09.140Z,21.67
2023-04-30T05:58:09.141Z,21.67
2023-04-30T05:59:09.147Z,21.67
2023-04-30T06:00:09.194Z,21.67
2023-04-30T06:01:09.230Z,21.69
2023-04-30T06:02:09.398Z,21.68
2023-04-30T06:03:09.332Z,21.69
2023-04-30T06:04:09.351Z,21.69
2023-04-30T06:05:09.430Z,21.69
2023-04-30T06:06:09.427Z,21.70
2023-04-30T06:07:09.412Z,21.70
2023-04-30T06:08:09.442Z,21.70
2023-04-30T06:09:09.449Z,21.71
2023-04-30T06:10:09.466Z,21.70
2023-04-30T06:11:09.482Z,21.71
2023-04-30T06:12:09.514Z,21.70
2023-04-30T06:13:09.541Z,21.71
2023-04-30T06:14:09.609Z,21.70
2023-04-30T06:15:09.594Z,21.71
2023-04-30T06:16:09.693Z,21.71
2023-04-30T06:17:09.652Z,21.71
2023-04-30T06:18:09.686Z,21.72
2023-04-30T06:19:09.690Z,21.72
2023-04-30T06:20:09.756Z,21.71
2023-04-30T06:21:09.788Z,21.71
2023-04-30T06:22:09.817Z,21.72
2023-04-30T06:23:09.800Z,21.73
2023-04-30T06:24:09.834Z,21.73
2023-04-30T06:25:09.851Z,21.73
2023-04-30T06:26:09.887Z,21.72
2023-04-30T06:27:09.934Z,21.72
2023-04-30T06:28:10.001Z,21.73
2023-04-30T06:29:09.989Z,21.72
2023-04-30T06:30:10.010Z,21.73
2023-04-30T06:31:10.026Z,21.74
2023-04-30T06:32:10.091Z,21.74
2023-04-30T06:33:10.083Z,21.74
2023-04-30T06:34:10.121Z,21.75
2023-04-30T06:35:10.152Z,21.75
2023-04-30T06:36:10.187Z,21.75
2023-04-30T06:37:10.244Z,21.75
2023-04-30T06:38:10.228Z,21.75
2023-04-30T06:39:10.263Z,21.75
2023-04-30T06:40:10.297Z,21.76
2023-04-30T06:41:10.315Z,21.77
2023-04-30T06:42:10.341Z,21.77
2023-04-30T06:43:10.342Z,21.77
2023-04-30T06:44:10.397Z,21.78
2023-04-30T06:45:10.381Z,21.78
2023-04-30T06:46:10.469Z,21.79
2023-04-30T06:47:10.446Z,21.79
2023-04-30T06:48:10.469Z,21.79
2023-04-30T06:49:10.451Z,21.80
2023-04-30T06:50:10.499Z,21.80
2023-04-30T06:51:11.034Z,21.81
2023-04-30T06:52:10.559Z,21.80
2023-04-30T06:53:10.559Z,21.81
2023-04-30T06:54:10.577Z,21.81
2023-04-30T06:55:10.603Z,21.82
2023-04-30T06:56:10.618Z,21.82
2023-04-30T06:57:10.637Z,21.82
2023-04-30T06:58:10.686Z,21.83
2023-04-30T06:59:10.667Z,21.84
2023-04-30T07:00:10.686Z,21.84
2023-04-30T07:01:10.744Z,21.85
2023-04-30T07:02:10.777Z,21.85
2023-04-30T07:03:10.862Z,21.85
2023-04-30T07:04:10.768Z,21.87
2023-04-30T07:05:10.785Z,21.87
2023-04-30T07:06:10.795Z,21.87
2023-04-30T07:07:10.809Z,21.87
2023-04-30T07:08:10.805Z,21.88
2023-04-30T07:09:10.819Z,21.88
2023-04-30T07:10:10.866Z,21.88
2023-04-30T07:11:10.854Z,21.90
2023-04-30T07:12:10.860Z,21.90
2023-04-30T07:13:10.867Z,21.90
2023-04-30T07:14:10.912Z,21.91
2023-04-30T07:15:10.929Z,21.92
2023-04-30T07:16:11.016Z,21.92
2023-04-30T07:17:10.918Z,21.92
2023-04-30T07:18:10.958Z,21.92
2023-04-30T07:19:10.939Z,21.93
2023-04-30T07:20:10.954Z,21.92
2023-04-30T07:21:10.999Z,21.93
2023-04-30T07:22:10.977Z,21.93
2023-04-30T07:23:10.973Z,21.93
2023-04-30T07:24:10.989Z,21.93
2023-04-30T07:25:11.013Z,21.93
2023-04-30T07:26:11.017Z,21.93
2023-04-30T07:27:11.024Z,21.93
2023-04-30T07:28:11.038Z,21.93
2023-04-30T07:29:11.040Z,21.93
2023-04-30T07:30:11.053Z,21.93
2023-04-30T07:31:11.133Z,21.93
2023-04-30T07:32:11.114Z,21.93
2023-04-30T07:33:11.212Z,21.93
2023-04-30T07:34:11.105Z,21.93
2023-04-30T07:35:11.164Z,21.94
2023-04-30T07:36:11.155Z,21.94
2023-04-30T07:37:11.149Z,21.94
2023-04-30T07:38:11.199Z,21.95
2023-04-30T07:39:11.202Z,21.95
2023-04-30T07:40:13.257Z,21.94
2023-04-30T07:41:11.209Z,21.94
2023-04-30T07:42:11.197Z,21.95
2023-04-30T07:43:11.148Z,21.95
2023-04-30T07:44:11.184Z,21.95
2023-04-30T07:45:11.135Z,21.96
2023-04-30T07:46:11.160Z,21.96
2023-04-30T07:47:11.162Z,21.96
2023-04-30T07:48:11.173Z,21.96
2023-04-30T07:49:11.117Z,21.96
2023-04-30T07:50:11.129Z,21.96
2023-04-30T07:51:11.147Z,21.97
2023-04-30T07:52:11.152Z,21.97
2023-04-30T07:53:11.094Z,21.97
2023-04-30T07:54:11.095Z,21.97
2023-04-30T07:55:11.206Z,21.97
2023-04-30T07:56:11.101Z,21.97
2023-04-30T07:57:11.104Z,21.97
2023-04-30T07:58:11.063Z,21.98
2023-04-30T07:59:11.082Z,21.98
2023-04-30T08:00:11.051Z,21.98
2023-04-30T08:01:11.045Z,21.98
2023-04-30T08:02:11.119Z,21.98
2023-04-30T08:03:11.122Z,21.97
2023-04-30T08:04:11.117Z,21.98
2023-04-30T08:05:11.044Z,21.98
2023-04-30T08:06:11.065Z,21.99
2023-04-30T08:07:11.029Z,21.98
2023-04-30T08:08:10.995Z,21.99
2023-04-30T08:09:10.983Z,21.99
2023-04-30T08:10:11.360Z,22.00
2023-04-30T08:11:11.015Z,22.00
2023-04-30T08:12:10.976Z,22.00
2023-04-30T08:13:10.994Z,22.01
2023-04-30T08:14:10.954Z,22.01
2023-04-30T08:15:10.954Z,22.02
2023-04-30T08:16:10.991Z,22.02
2023-04-30T08:17:10.990Z,22.03
2023-04-30T08:18:10.959Z,22.03
2023-04-30T08:19:10.970Z,22.04
2023-04-30T08:20:10.940Z,22.05
2023-04-30T08:21:10.931Z,22.05
2023-04-30T08:22:10.934Z,22.04
2023-04-30T08:23:10.890Z,22.04
2023-04-30T08:24:10.888Z,22.06
2023-04-30T08:25:10.905Z,22.06
2023-04-30T08:26:10.860Z,22.06
2023-04-30T08:27:10.971Z,22.06
2023-04-30T08:28:10.871Z,22.07
2023-04-30T08:29:10.886Z,22.06
2023-04-30T08:30:10.848Z,22.07
2023-04-30T08:31:10.864Z,22.07
2023-04-30T08:32:10.893Z,22.07
2023-04-30T08:33:10.892Z,22.08
2023-04-30T08:34:10.814Z,22.09
2023-04-30T08:35:10.837Z,22.09
2023-04-30T08:36:10.792Z,22.10
2023-04-30T08:37:10.810Z,22.10
2023-04-30T08:38:10.779Z,22.10
2023-04-30T08:39:10.797Z,22.11
2023-04-30T08:40:10.753Z,22.12
2023-04-30T08:41:10.778Z,22.13
2023-04-30T08:42:10.752Z,22.13
2023-04-30T08:43:10.750Z,22.14
2023-04-30T08:44:10.756Z,22.15
2023-04-30T08:45:10.763Z,22.16
2023-04-30T08:46:10.747Z,22.17
2023-04-30T08:47:10.701Z,22.17
2023-04-30T08:48:10.699Z,22.19
2023-04-30T08:49:10.704Z,22.21
2023-04-30T08:50:10.706Z,22.22
2023-04-30T08:51:10.705Z,22.23
2023-04-30T08:52:10.681Z,22.25
2023-04-30T08:53:10.715Z,22.26
2023-04-30T08:54:10.667Z,22.27
2023-04-30T08:55:10.645Z,22.28
2023-04-30T08:56:10.673Z,22.29
2023-04-30T08:57:10.626Z,22.30
2023-04-30T08:58:10.634Z,22.30
2023-04-30T08:59:10.608Z,22.32
2023-04-30T09:00:10.627Z,22.33
2023-04-30T09:01:10.633Z,22.33
2023-04-30T09:02:10.826Z,22.33
2023-04-30T09:03:10.706Z,22.34
2023-04-30T09:04:10.746Z,22.35
2023-04-30T09:05:10.585Z,22.35
2023-04-30T09:06:10.641Z,22.35
2023-04-30T09:07:10.558Z,22.36
2023-04-30T09:08:10.567Z,22.37
2023-04-30T09:09:10.551Z,22.37
2023-04-30T09:10:10.552Z,22.36
2023-04-30T09:11:10.524Z,22.36
2023-04-30T09:12:10.544Z,22.37
2023-04-30T09:13:10.507Z,22.37
2023-04-30T09:14:10.502Z,22.37
2023-04-30T09:15:10.495Z,22.37
2023-04-30T09:16:10.518Z,22.39
2023-04-30T09:17:10.486Z,22.39
2023-04-30T09:18:10.550Z,22.39
2023-04-30T09:19:10.473Z,22.39
2023-04-30T09:20:10.849Z,22.40
2023-04-30T09:21:10.461Z,22.40
2023-04-30T09:22:10.430Z,22.42
2023-04-30T09:23:10.435Z,22.42
2023-04-30T09:24:10.536Z,22.43
2023-04-30T09:25:10.436Z,22.45
2023-04-30T09:26:10.415Z,22.45
2023-04-30T09:27:10.421Z,22.46
2023-04-30T09:28:10.887Z,22.47
2023-04-30T09:29:10.411Z,22.49
2023-04-30T09:30:10.445Z,22.49
2023-04-30T09:31:10.510Z,22.51
2023-04-30T09:32:10.449Z,22.51
2023-04-30T09:33:12.317Z,22.53
2023-04-30T09:34:10.358Z,22.53
2023-04-30T09:35:10.390Z,22.54
2023-04-30T09:36:10.391Z,22.54
2023-04-30T09:37:10.327Z,22.56
2023-04-30T09:38:10.339Z,22.58
2023-04-30T09:39:12.651Z,22.59
2023-04-30T09:40:10.353Z,22.59
2023-04-30T09:41:10.362Z,22.60
2023-04-30T09:42:10.327Z,22.61
2023-04-30T09:43:10.361Z,22.62
2023-04-30T09:44:10.324Z,22.61
2023-04-30T09:45:10.335Z,22.63
2023-04-30T09:46:10.395Z,22.62
2023-04-30T09:47:10.344Z,22.64
2023-04-30T09:48:17.320Z,22.65
2023-04-30T09:49:11.287Z,22.66
2023-04-30T09:50:10.269Z,22.66
2023-04-30T09:51:10.344Z,22.67
2023-04-30T09:52:10.280Z,22.67
2023-04-30T09:53:10.278Z,22.67
2023-04-30T09:54:10.249Z,22.67
2023-04-30T09:55:10.265Z,22.68
2023-04-30T09:56:10.240Z,22.68
2023-04-30T09:57:10.246Z,22.69
2023-04-30T09:58:10.225Z,22.69
2023-04-30T09:59:10.291Z,22.69
2023-04-30T10:00:10.311Z,22.71
2023-04-30T10:01:10.414Z,22.72
2023-04-30T10:02:10.443Z,22.72
2023-04-30T10:03:10.581Z,22.73
2023-04-30T10:04:10.583Z,22.73
2023-04-30T10:05:10.601Z,22.73
2023-04-30T10:06:10.697Z,22.74
2023-04-30T10:07:11.592Z,22.75
2023-04-30T10:08:10.806Z,22.76
2023-04-30T10:09:10.877Z,22.77
2023-04-30T10:10:10.898Z,22.78
2023-04-30T10:11:10.967Z,22.80
2023-04-30T10:12:11.037Z,22.80
2023-04-30T10:13:11.375Z,22.81
2023-04-30T10:14:11.182Z,22.82
2023-04-30T10:15:11.200Z,22.83
2023-04-30T10:16:11.284Z,22.85
2023-04-30T10:17:11.341Z,22.87
2023-04-30T10:18:11.429Z,22.88
2023-04-30T10:19:11.422Z,22.90
2023-04-30T10:20:11.537Z,22.90
2023-04-30T10:21:11.561Z,22.90
2023-04-30T10:22:11.641Z,22.91
2023-04-30T10:23:11.656Z,22.91
2023-04-30T10:24:11.777Z,22.93
2023-04-30T10:25:11.790Z,22.93
2023-04-30T10:26:11.827Z,22.97
2023-04-30T10:27:12.965Z,22.99
2023-04-30T10:28:11.949Z,23.01
2023-04-30T10:29:11.975Z,22.99
2023-04-30T10:30:12.053Z,22.99
2023-04-30T10:31:12.122Z,22.99
2023-04-30T10:32:12.186Z,22.99
2023-04-30T10:33:13.547Z,23.00
2023-04-30T10:34:12.179Z,23.01
2023-04-30T10:35:12.173Z,23.01
2023-04-30T10:36:12.153Z,23.01
2023-04-30T10:37:12.219Z,23.01
2023-04-30T10:38:12.190Z,23.03
2023-04-30T10:39:12.159Z,23.03
2023-04-30T10:40:12.124Z,23.06
2023-04-30T10:41:12.125Z,23.10
2023-04-30T10:42:12.106Z,23.13
2023-04-30T10:43:12.108Z,23.12
2023-04-30T10:44:12.093Z,23.13
2023-04-30T10:45:12.086Z,23.12
2023-04-30T10:46:12.227Z,23.13
2023-04-30T10:47:12.071Z,23.14
2023-04-30T10:48:12.136Z,23.14
2023-04-30T10:49:12.089Z,23.15
2023-04-30T10:50:12.060Z,23.15
2023-04-30T10:51:12.043Z,23.15
2023-04-30T10:52:12.038Z,23.17
2023-04-30T10:53:12.042Z,23.20
2023-04-30T10:54:12.009Z,23.23
2023-04-30T10:55:12.000Z,23.22
2023-04-30T10:56:12.024Z,23.22
2023-04-30T10:57:12.040Z,23.22
2023-04-30T10:58:12.000Z,23.23
2023-04-30T10:59:11.988Z,23.23
2023-04-30T11:00:11.993Z,23.22
2023-04-30T11:01:12.073Z,23.22
2023-04-30T11:02:11.978Z,23.22
2023-04-30T11:03:12.054Z,23.24
2023-04-30T11:04:11.977Z,23.23
2023-04-30T11:05:12.107Z,23.23
2023-04-30T11:06:11.980Z,23.23
2023-04-30T11:07:11.984Z,23.23
2023-04-30T11:08:11.937Z,23.22
2023-04-30T11:09:11.916Z,23.22
2023-04-30T11:10:11.936Z,23.22
2023-04-30T11:11:11.893Z,23.22
2023-04-30T11:12:11.930Z,23.24
2023-04-30T11:13:11.934Z,23.25
2023-04-30T11:14:11.893Z,23.26
2023-04-30T11:15:11.900Z,23.26
2023-04-30T11:16:11.942Z,23.28
2023-04-30T11:17:11.875Z,23.29
2023-04-30T11:18:12.054Z,23.29
2023-04-30T11:19:11.971Z,23.30
2023-04-30T11:20:11.869Z,23.30
2023-04-30T11:21:11.854Z,23.29
2023-04-30T11:22:11.840Z,23.30
2023-04-30T11:23:12.158Z,23.31
2023-04-30T11:24:11.814Z,23.32
2023-04-30T11:25:11.839Z,23.31
2023-04-30T11:26:11.809Z,23.33
2023-04-30T11:27:11.829Z,23.33
2023-04-30T11:28:11.851Z,23.34
2023-04-30T11:29:11.865Z,23.34
2023-04-30T11:30:11.845Z,23.36
2023-04-30T11:32:11.923Z,23.38
2023-04-30T11:33:11.907Z,23.39
2023-04-30T11:34:11.958Z,23.39
2023-04-30T11:35:11.977Z,23.40
2023-04-30T11:36:12.009Z,23.40
2023-04-30T11:37:12.016Z,23.41
2023-04-30T11:38:12.410Z,23.42
2023-04-30T11:39:12.049Z,23.43
2023-04-30T11:40:12.078Z,23.44
2023-04-30T11:41:12.142Z,23.45
2023-04-30T11:42:12.161Z,23.46
2023-04-30T11:43:12.177Z,23.45
2023-04-30T11:44:12.154Z,23.45
2023-04-30T11:45:12.198Z,23.45
2023-04-30T11:46:12.306Z,23.43
2023-04-30T11:47:12.257Z,23.44
2023-04-30T11:48:12.342Z,23.44
2023-04-30T11:49:12.269Z,23.45
2023-04-30T11:50:12.301Z,23.45
2023-04-30T11:51:12.327Z,23.45
2023-04-30T11:52:12.336Z,23.47
2023-04-30T11:53:12.373Z,23.48
2023-04-30T11:54:12.384Z,23.48
2023-04-30T11:55:12.412Z,23.49
2023-04-30T11:56:12.414Z,23.49
2023-04-30T11:57:12.442Z,23.49
2023-04-30T11:58:12.458Z,23.50
2023-04-30T11:59:12.479Z,23.50
2023-04-30T12:00:12.493Z,23.50
2023-04-30T12:01:12.514Z,23.49
2023-04-30T12:02:13.729Z,23.50
2023-04-30T12:03:12.632Z,23.51
2023-04-30T12:04:12.668Z,23.52
2023-04-30T12:05:12.609Z,23.52
2023-04-30T12:06:12.713Z,23.52
2023-04-30T12:07:12.645Z,23.53
2023-04-30T12:08:12.662Z,23.52
2023-04-30T12:09:12.655Z,23.52
2023-04-30T12:10:12.682Z,23.52
2023-04-30T12:11:12.942Z,23.52
2023-04-30T12:12:12.727Z,23.53
2023-04-30T12:13:12.730Z,23.53
2023-04-30T12:14:12.775Z,23.53
2023-04-30T12:15:12.825Z,23.53
2023-04-30T12:16:12.853Z,23.53
2023-04-30T12:17:12.861Z,23.54
2023-04-30T12:18:12.902Z,23.54
2023-04-30T12:19:12.899Z,23.55
2023-04-30T12:20:12.876Z,23.55
2023-04-30T12:21:13.008Z,23.53
2023-04-30T12:22:12.946Z,23.54
2023-04-30T12:23:12.949Z,23.54
2023-04-30T12:24:12.969Z,23.53
2023-04-30T12:25:12.986Z,23.52
2023-04-30T12:26:13.026Z,23.51
2023-04-30T12:27:13.047Z,23.50
2023-04-30T12:28:13.080Z,23.50
2023-04-30T12:29:15.277Z,23.49
2023-04-30T12:30:13.177Z,23.49
2023-04-30T12:31:13.168Z,23.49
2023-04-30T12:32:13.299Z,23.49
2023-04-30T12:33:13.243Z,23.49
2023-04-30T12:34:13.276Z,23.49
2023-04-30T12:35:13.256Z,23.47
2023-04-30T12:36:13.268Z,23.47
2023-04-30T12:37:13.327Z,23.45
2023-04-30T12:38:13.347Z,23.45
2023-04-30T12:39:13.359Z,23.47
2023-04-30T12:40:13.342Z,23.48
2023-04-30T12:41:13.385Z,23.48
2023-04-30T12:42:13.382Z,23.49
2023-04-30T12:43:13.427Z,23.48
2023-04-30T12:44:13.458Z,23.48
2023-04-30T12:45:13.453Z,23.47
2023-04-30T12:46:13.555Z,23.46
2023-04-30T12:47:13.521Z,23.45
2023-04-30T12:48:13.643Z,23.45
2023-04-30T12:49:13.549Z,23.45
2023-04-30T12:50:13.577Z,23.44
2023-04-30T12:51:13.596Z,23.43
2023-04-30T12:52:13.609Z,23.43
2023-04-30T12:53:13.638Z,23.43